Time;durP1;ratioP1;P1;durP2;ratioP2;P2;SDS_P1;SDS_P2;PMS_P1;PMS_P2;Temp;Humidity;BMP_temperature;BMP_pressure;BME280_temperature;BME280_humidity;BME280_pressure;Samples;Min_cycle;Max_cycle;Signal;HPM_P1;HPM_P2
2021/11/20 00:01:20;;;;;;;0.50;0.50;;;4.50;99.90;;;;;;4973854;28;20384;-68
2021/11/20 00:03:46;;;;;;;1.00;0.60;;;4.40;99.90;;;;;;4957307;28;20403;-68
2021/11/20 00:06:15;;;;;;;2.37;1.10;;;4.40;99.90;;;;;;4974616;28;20757;-67
2021/11/20 00:08:41;;;;;;;0.47;0.47;;;4.50;99.90;;;;;;4973543;28;20392;-68
2021/11/20 00:11:09;;;;;;;0.40;0.30;;;4.40;99.90;;;;;;4974400;28;20447;-68
2021/11/20 00:13:36;;;;;;;0.52;0.52;;;4.40;99.90;;;;;;4973612;28;20896;-68
2021/11/20 00:16:04;;;;;;;0.60;0.60;;;4.30;99.90;;;;;;4973891;28;20396;-68
2021/11/20 00:18:31;;;;;;;3.85;0.82;;;4.20;99.90;;;;;;4973620;28;20750;-68
2021/11/20 00:21:02;;;;;;;1.00;1.00;;;4.20;99.90;;;;;;4974207;28;20424;-68
2021/11/20 00:23:36;;;;;;;0.40;0.20;;;4.20;99.90;;;;;;4973534;28;20496;-67
2021/11/20 00:26:03;;;;;;;0.40;0.30;;;4.20;99.90;;;;;;4974308;28;20396;-67
2021/11/20 00:28:41;;;;;;;0.40;0.40;;;4.10;99.90;;;;;;4973687;28;20392;-68
2021/11/20 00:31:12;;;;;;;0.70;0.70;;;4.10;99.90;;;;;;4974166;28;20436;-67
2021/11/20 00:33:38;;;;;;;0.40;0.30;;;4.20;99.90;;;;;;4973179;28;20381;-67
2021/11/20 00:36:05;;;;;;;0.50;0.50;;;4.20;99.90;;;;;;4973946;28;20391;-68
2021/11/20 00:38:31;;;;;;;0.40;0.30;;;4.20;99.90;;;;;;4973926;28;20757;-67
2021/11/20 00:41:02;;;;;;;0.50;0.50;;;4.10;99.90;;;;;;4973092;28;20392;-67
2021/11/20 00:43:28;;;;;;;0.40;0.30;;;4.20;99.90;;;;;;4973178;28;20417;-68
2021/11/20 00:45:54;;;;;;;1.30;0.80;;;4.20;99.90;;;;;;4972755;28;20925;-68
2021/11/20 00:48:22;;;;;;;0.40;0.20;;;4.20;99.90;;;;;;4973899;28;20389;-67
2021/11/20 00:50:51;;;;;;;0.80;0.70;;;4.20;99.90;;;;;;4955371;28;20498;-67
2021/11/20 00:53:18;;;;;;;0.40;0.20;;;4.10;99.90;;;;;;4973737;28;20460;-67
2021/11/20 00:55:44;;;;;;;0.60;0.60;;;4.10;99.90;;;;;;4973240;28;20391;-68
2021/11/20 00:58:10;;;;;;;0.40;0.40;;;4.20;99.90;;;;;;4981434;28;20422;-67
2021/11/20 01:00:41;;;;;;;0.40;0.20;;;4.20;99.90;;;;;;4993100;28;20478;-68
2021/11/20 01:03:07;;;;;;;0.40;0.20;;;4.30;99.90;;;;;;4992137;28;20578;-67
2021/11/20 01:05:34;;;;;;;0.40;0.40;;;4.20;99.90;;;;;;4959413;28;20404;-67
2021/11/20 01:08:00;;;;;;;0.45;0.45;;;4.20;99.90;;;;;;4992043;28;20386;-67
2021/11/20 01:10:28;;;;;;;0.40;0.20;;;4.20;99.90;;;;;;4992681;28;20383;-67
2021/11/20 01:12:54;;;;;;;2.80;0.80;;;4.10;99.90;;;;;;4992283;28;20391;-67
2021/11/20 01:15:26;;;;;;;0.40;0.30;;;4.20;99.90;;;;;;4992485;28;20385;-67
2021/11/20 01:17:52;;;;;;;0.40;0.30;;;4.30;99.90;;;;;;4992724;28;20382;-67
2021/11/20 01:20:19;;;;;;;0.80;0.60;;;4.20;99.90;;;;;;4991707;28;20679;-67
2021/11/20 01:22:44;;;;;;;0.40;0.20;;;4.20;99.90;;;;;;4992479;28;20425;-67
2021/11/20 01:25:11;;;;;;;0.40;0.20;;;4.30;99.90;;;;;;4991587;28;20394;-67
2021/11/20 01:27:37;;;;;;;0.40;0.30;;;4.20;99.90;;;;;;4991915;28;20422;-67
2021/11/20 01:30:07;;;;;;;0.40;0.20;;;4.30;99.90;;;;;;4992016;28;20417;-68
2021/11/20 01:32:33;;;;;;;0.40;0.30;;;4.30;99.90;;;;;;4992251;28;20559;-69
2021/11/20 01:34:59;;;;;;;0.40;0.30;;;4.20;99.90;;;;;;4992730;28;20394;-67
2021/11/20 01:37:25;;;;;;;0.40;0.20;;;4.10;99.90;;;;;;4991428;28;20588;-68
2021/11/20 01:39:51;;;;;;;0.40;0.20;;;4.00;99.90;;;;;;4992634;28;20393;-67
2021/11/20 01:42:29;;;;;;;0.40;0.30;;;4.00;99.90;;;;;;4991310;28;20422;-67
2021/11/20 01:45:03;;;;;;;0.40;0.20;;;4.20;99.90;;;;;;4992344;28;20409;-66
2021/11/20 01:47:43;;;;;;;0.40;0.20;;;4.20;99.90;;;;;;4991495;28;20394;-66
2021/11/20 01:50:13;;;;;;;0.40;0.20;;;4.20;99.90;;;;;;4991864;28;20423;-69
2021/11/20 01:52:42;;;;;;;0.40;0.20;;;4.20;99.90;;;;;;4974004;28;20892;-69
2021/11/20 01:55:40;;;;;;;0.40;0.20;;;4.20;99.90;;;;;;4991257;28;20732;-66
2021/11/20 01:58:15;;;;;;;0.40;0.20;;;4.30;99.90;;;;;;4984413;28;20396;-66
2021/11/20 02:01:00;;;;;;;0.40;0.32;;;4.20;99.90;;;;;;4971942;28;20392;-67
2021/11/20 02:03:44;;;;;;;0.40;0.20;;;4.20;99.90;;;;;;4971668;28;20913;-67
2021/11/20 02:06:34;;;;;;;0.40;0.20;;;4.10;99.90;;;;;;4972478;28;20396;-68
2021/11/20 02:09:29;;;;;;;0.40;0.20;;;4.10;99.90;;;;;;4972476;28;20384;-67
2021/11/20 02:11:59;;;;;;;0.40;0.20;;;4.10;99.90;;;;;;4972340;28;20447;-68
2021/11/20 02:14:27;;;;;;;0.40;0.20;;;4.10;99.90;;;;;;4972355;28;20385;-67
2021/11/20 02:17:00;;;;;;;0.40;0.20;;;4.10;99.90;;;;;;4971483;28;20525;-69
2021/11/20 02:19:30;;;;;;;0.70;0.70;;;4.10;99.90;;;;;;4971889;28;20381;-68
2021/11/20 02:22:10;;;;;;;0.70;0.70;;;4.10;99.90;;;;;;4971484;28;20430;-68
2021/11/20 02:24:36;;;;;;;0.40;0.30;;;4.10;99.90;;;;;;4971624;28;20755;-68
2021/11/20 02:27:05;;;;;;;0.40;0.23;;;4.00;99.90;;;;;;4971422;28;20479;-68
2021/11/20 02:29:31;;;;;;;1.60;0.77;;;4.00;99.90;;;;;;4972119;28;20738;-68
2021/11/20 02:32:00;;;;;;;0.40;0.20;;;4.00;99.90;;;;;;4970635;28;20400;-68
2021/11/20 02:34:31;;;;;;;0.50;0.50;;;4.10;99.90;;;;;;4972030;28;20389;-68
2021/11/20 02:36:56;;;;;;;0.60;0.60;;;4.20;99.90;;;;;;4970880;28;20392;-68
2021/11/20 02:39:26;;;;;;;0.40;0.30;;;4.30;99.90;;;;;;4971745;28;20385;-68
2021/11/20 02:41:55;;;;;;;0.40;0.20;;;4.30;99.90;;;;;;4970991;28;20415;-68
2021/11/20 02:44:23;;;;;;;0.40;0.28;;;4.10;99.90;;;;;;4971576;28;20457;-68
2021/11/20 02:46:54;;;;;;;0.80;0.70;;;4.10;99.90;;;;;;4971769;28;20447;-68
2021/11/20 02:49:20;;;;;;;0.40;0.20;;;4.10;99.90;;;;;;4977041;28;20764;-68
2021/11/20 02:51:51;;;;;;;1.00;0.60;;;4.10;99.90;;;;;;4991215;28;20425;-68
2021/11/20 02:54:20;;;;;;;0.40;0.30;;;4.10;99.90;;;;;;4990392;28;21007;-68
2021/11/20 02:57:06;;;;;;;0.50;0.50;;;4.10;99.90;;;;;;4991229;28;20481;-67
2021/11/20 02:59:32;;;;;;;0.40;0.20;;;4.10;99.90;;;;;;5010453;28;20750;-68
2021/11/20 03:01:58;;;;;;;0.90;0.50;;;4.00;99.90;;;;;;5010004;28;20508;-67
2021/11/20 03:04:24;;;;;;;0.40;0.22;;;4.00;99.90;;;;;;5009608;28;20455;-68
2021/11/20 03:06:52;;;;;;;0.40;0.30;;;4.10;99.90;;;;;;5015723;28;20391;-68
2021/11/20 03:09:22;;;;;;;0.40;0.20;;;4.20;99.90;;;;;;5016095;28;20938;-68
2021/11/20 03:11:48;;;;;;;0.40;0.30;;;4.10;99.90;;;;;;5017269;28;20738;-68
2021/11/20 03:14:15;;;;;;;0.40;0.20;;;4.00;99.90;;;;;;5015892;28;20397;-69
2021/11/20 03:16:51;;;;;;;0.50;0.35;;;4.00;99.90;;;;;;5016990;28;20479;-68
2021/11/20 03:19:17;;;;;;;0.40;0.30;;;4.10;99.90;;;;;;5016280;28;20456;-69
2021/11/20 03:21:46;;;;;;;0.40;0.20;;;4.00;99.90;;;;;;5016984;28;20458;-67
2021/11/20 03:24:15;;;;;;;0.40;0.20;;;4.00;99.90;;;;;;5016959;28;20385;-67
2021/11/20 03:26:42;;;;;;;0.40;0.30;;;4.10;99.90;;;;;;5016207;28;21012;-68
2021/11/20 03:29:08;;;;;;;0.40;0.20;;;4.10;99.90;;;;;;5016972;28;20441;-68
2021/11/20 03:31:34;;;;;;;0.40;0.40;;;4.00;99.90;;;;;;5016154;28;20730;-68
2021/11/20 03:34:00;;;;;;;0.80;0.60;;;4.10;99.90;;;;;;5016992;28;20754;-68
2021/11/20 03:36:25;;;;;;;0.40;0.20;;;4.00;99.90;;;;;;5016699;28;20391;-68
2021/11/20 03:38:51;;;;;;;0.80;0.60;;;3.90;99.90;;;;;;5016450;28;20729;-68
2021/11/20 03:41:17;;;;;;;0.40;0.20;;;4.10;99.90;;;;;;4999125;28;20873;-68
2021/11/20 03:43:43;;;;;;;0.40;0.30;;;4.10;99.90;;;;;;4998338;28;20750;-68
2021/11/20 03:46:09;;;;;;;0.40;0.20;;;4.20;99.90;;;;;;5016594;28;20763;-68
2021/11/20 03:48:35;;;;;;;0.40;0.20;;;4.10;99.90;;;;;;5016417;28;20423;-68
2021/11/20 03:51:01;;;;;;;0.40;0.20;;;4.20;99.90;;;;;;5016346;28;20411;-68
2021/11/20 03:53:27;;;;;;;0.40;0.30;;;4.00;99.90;;;;;;5016826;28;20420;-68
2021/11/20 03:55:53;;;;;;;1.35;1.25;;;4.10;99.90;;;;;;5016011;28;20423;-68
2021/11/20 03:58:21;;;;;;;0.40;0.20;;;4.10;99.90;;;;;;5006781;28;20453;-68
2021/11/20 04:01:10;;;;;;;0.80;0.80;;;4.10;99.90;;;;;;4996375;28;20390;-68
2021/11/20 04:03:39;;;;;;;0.40;0.30;;;4.20;99.90;;;;;;4996686;28;20921;-68
2021/11/20 04:06:13;;;;;;;0.40;0.20;;;4.30;99.90;;;;;;4996328;28;20449;-68
2021/11/20 04:08:40;;;;;;;0.40;0.20;;;4.30;99.90;;;;;;4996969;28;20394;-68
2021/11/20 04:11:06;;;;;;;0.40;0.40;;;4.20;99.90;;;;;;4995715;28;20397;-68
2021/11/20 04:13:38;;;;;;;0.40;0.20;;;4.30;99.90;;;;;;4996900;28;20390;-68
2021/11/20 04:16:07;;;;;;;0.40;0.20;;;4.40;99.90;;;;;;4996235;28;20477;-68
2021/11/20 04:18:32;;;;;;;0.70;0.70;;;4.40;99.90;;;;;;4992840;28;20387;-68
2021/11/20 04:20:58;;;;;;;0.40;0.20;;;4.40;99.90;;;;;;4993184;28;20498;-68
2021/11/20 04:23:24;;;;;;;0.60;0.60;;;4.40;99.90;;;;;;4993153;28;20892;-68
2021/11/20 04:25:50;;;;;;;0.60;0.60;;;4.30;99.90;;;;;;4993399;28;20890;-68
2021/11/20 04:28:16;;;;;;;0.40;0.20;;;4.30;99.90;;;;;;4992178;28;20401;-68
2021/11/20 04:30:44;;;;;;;0.40;0.30;;;4.40;99.90;;;;;;4976411;28;20383;-68
2021/11/20 04:33:11;;;;;;;0.40;0.30;;;4.40;99.90;;;;;;4992703;28;20398;-68
2021/11/20 04:35:38;;;;;;;0.57;0.57;;;4.30;99.90;;;;;;4993655;28;20401;-68
2021/11/20 04:38:05;;;;;;;0.40;0.20;;;4.40;99.90;;;;;;4993603;28;20461;-68
2021/11/20 04:40:31;;;;;;;0.40;0.20;;;4.30;99.90;;;;;;4992465;28;20390;-67
2021/11/20 04:42:58;;;;;;;0.40;0.20;;;4.30;99.90;;;;;;4993294;28;20425;-68
2021/11/20 04:45:26;;;;;;;0.50;0.50;;;4.30;99.90;;;;;;4992476;28;20442;-68
2021/11/20 04:47:52;;;;;;;0.57;0.57;;;4.40;99.90;;;;;;4993160;28;20835;-68
2021/11/20 04:50:20;;;;;;;0.40;0.20;;;4.40;99.90;;;;;;4992799;28;20422;-68
2021/11/20 04:52:47;;;;;;;0.40;0.30;;;4.40;99.90;;;;;;4993596;28;20416;-68
2021/11/20 04:55:15;;;;;;;0.40;0.20;;;4.30;99.90;;;;;;4992626;28;20407;-68
2021/11/20 04:57:41;;;;;;;0.40;0.20;;;4.30;99.90;;;;;;4996447;28;20394;-68
2021/11/20 05:00:12;;;;;;;0.40;0.20;;;4.40;99.90;;;;;;4994779;28;20407;-68
2021/11/20 05:02:38;;;;;;;0.40;0.20;;;4.30;99.90;;;;;;5012299;28;20405;-68
2021/11/20 05:05:05;;;;;;;0.40;0.20;;;4.30;99.90;;;;;;5012302;28;20393;-68
2021/11/20 05:07:31;;;;;;;0.40;0.20;;;4.50;99.90;;;;;;5012499;28;20484;-68
2021/11/20 05:09:58;;;;;;;0.40;0.30;;;4.40;99.90;;;;;;5012788;28;20813;-68
2021/11/20 05:12:24;;;;;;;0.40;0.20;;;4.40;99.90;;;;;;5013234;28;20411;-68
2021/11/20 05:14:50;;;;;;;0.40;0.20;;;4.40;99.90;;;;;;5012126;28;20388;-68
2021/11/20 05:17:16;;;;;;;0.40;0.20;;;4.50;99.90;;;;;;5012645;28;20384;-68
2021/11/20 05:19:41;;;;;;;0.40;0.20;;;4.50;99.90;;;;;;5011413;28;20432;-68
2021/11/20 05:22:07;;;;;;;0.40;0.20;;;4.50;99.90;;;;;;5012019;28;20505;-68
2021/11/20 05:24:33;;;;;;;0.40;0.20;;;4.50;99.90;;;;;;5012224;28;20392;-67
2021/11/20 05:27:01;;;;;;;0.40;0.20;;;4.50;99.90;;;;;;5011594;28;20385;-67
2021/11/20 05:32:05;;;;;;;0.87;0.87;;;4.60;99.90;;;;;;5011855;28;20386;-67
2021/11/20 05:34:31;;;;;;;0.90;0.90;;;4.30;99.90;;;;;;5011997;28;20393;-67
2021/11/20 05:36:57;;;;;;;0.40;0.20;;;4.30;99.90;;;;;;5011043;28;20396;-67
2021/11/20 05:39:23;;;;;;;0.40;0.20;;;4.50;99.90;;;;;;4994730;28;20944;-68
2021/11/20 05:41:49;;;;;;;0.40;0.20;;;4.40;99.90;;;;;;5012274;28;20409;-68
2021/11/20 05:44:15;;;;;;;0.40;0.20;;;4.20;99.90;;;;;;5011333;28;20388;-67
2021/11/20 05:46:41;;;;;;;0.40;0.20;;;4.20;99.90;;;;;;4994590;28;20436;-67
2021/11/20 05:49:08;;;;;;;0.40;0.20;;;4.20;99.90;;;;;;5006992;28;20438;-67
2021/11/20 05:51:36;;;;;;;0.50;0.40;;;4.20;99.90;;;;;;4992523;28;20467;-68
2021/11/20 05:54:03;;;;;;;0.40;0.30;;;4.10;99.90;;;;;;4992107;28;20739;-67
2021/11/20 05:56:29;;;;;;;0.40;0.20;;;4.30;99.90;;;;;;4974875;28;20399;-70
2021/11/20 05:58:55;;;;;;;0.40;0.20;;;4.30;99.90;;;;;;4944735;28;20400;-67
2021/11/20 06:01:21;;;;;;;0.40;0.20;;;4.20;99.90;;;;;;4972080;28;20392;-68
2021/11/20 06:03:49;;;;;;;0.40;0.20;;;4.10;99.90;;;;;;4972875;28;20762;-68
2021/11/20 06:06:16;;;;;;;0.90;0.60;;;4.20;99.90;;;;;;4971923;28;20424;-68
2021/11/20 06:08:41;;;;;;;0.40;0.20;;;4.20;99.90;;;;;;4972949;28;20399;-68
2021/11/20 06:11:08;;;;;;;0.40;0.20;;;4.20;99.90;;;;;;4972990;28;20392;-68
2021/11/20 06:13:34;;;;;;;0.40;0.20;;;4.30;99.90;;;;;;4971944;28;21014;-68
2021/11/20 06:16:00;;;;;;;0.40;0.20;;;4.20;99.90;;;;;;4972246;28;20395;-68
2021/11/20 06:18:25;;;;;;;0.40;0.20;;;4.20;99.90;;;;;;4971830;28;20381;-68
2021/11/20 06:20:52;;;;;;;0.70;0.60;;;4.20;99.90;;;;;;4972771;28;20458;-68
2021/11/20 06:23:19;;;;;;;0.40;0.20;;;4.10;99.90;;;;;;4972234;28;20423;-67
2021/11/20 06:25:45;;;;;;;0.40;0.20;;;4.10;99.90;;;;;;4971553;28;20539;-68
2021/11/20 06:28:11;;;;;;;0.40;0.30;;;4.00;99.90;;;;;;4954897;28;20431;-68
2021/11/20 06:30:37;;;;;;;0.40;0.20;;;4.00;99.90;;;;;;4971648;28;20420;-68
2021/11/20 06:33:04;;;;;;;0.40;0.20;;;4.00;99.90;;;;;;4971875;28;20495;-68
2021/11/20 06:35:33;;;;;;;0.40;0.20;;;4.00;99.90;;;;;;4971521;28;20431;-69
2021/11/20 06:37:58;;;;;;;0.40;0.20;;;4.10;99.90;;;;;;4972487;28;20899;-69
2021/11/20 06:40:27;;;;;;;0.40;0.20;;;4.00;99.90;;;;;;4971911;28;20388;-68
2021/11/20 06:42:54;;;;;;;0.40;0.30;;;4.10;99.90;;;;;;4954147;28;20422;-69
2021/11/20 06:45:23;;;;;;;0.40;0.40;;;4.20;99.90;;;;;;4971995;28;20384;-68
2021/11/20 06:47:50;;;;;;;0.40;0.30;;;4.20;99.90;;;;;;4971554;28;20436;-69
2021/11/20 06:50:16;;;;;;;0.40;0.20;;;4.10;99.90;;;;;;4984915;28;20425;-68
2021/11/20 06:52:42;;;;;;;0.40;0.20;;;4.20;99.90;;;;;;4991070;28;20401;-68
2021/11/20 06:55:09;;;;;;;1.10;1.00;;;4.30;99.90;;;;;;4991626;28;20724;-68
2021/11/20 07:00:27;;;;;;;0.40;0.30;;;4.30;99.90;;;;;;5010356;28;20392;-68
2021/11/20 07:02:59;;;;;;;0.40;0.20;;;4.40;99.90;;;;;;5010344;28;20458;-69
2021/11/20 07:05:27;;;;;;;0.60;0.60;;;4.40;99.90;;;;;;5010885;28;20389;-68
2021/11/20 07:07:54;;;;;;;0.40;0.20;;;4.30;99.90;;;;;;5010314;28;20383;-68
2021/11/20 07:10:22;;;;;;;0.60;0.50;;;4.20;99.90;;;;;;5010729;28;20443;-68
2021/11/20 07:12:52;;;;;;;0.40;0.20;;;4.10;99.90;;;;;;5001416;28;20405;-68
2021/11/20 07:15:19;;;;;;;0.40;0.20;;;4.20;99.90;;;;;;4989344;28;20385;-69
2021/11/20 07:17:46;;;;;;;0.40;0.20;;;4.10;99.90;;;;;;4987914;28;20397;-68
2021/11/20 07:20:12;;;;;;;0.80;0.80;;;4.00;99.90;;;;;;4989436;28;20794;-68
2021/11/20 07:22:38;;;;;;;0.40;0.20;;;4.00;99.90;;;;;;4988961;28;20422;-69
2021/11/20 07:25:05;;;;;;;0.40;0.20;;;4.00;99.90;;;;;;4988506;28;20415;-69
2021/11/20 07:27:31;;;;;;;0.40;0.20;;;4.20;99.90;;;;;;4988387;28;20484;-69
2021/11/20 07:29:57;;;;;;;0.40;0.30;;;4.00;99.90;;;;;;4988780;28;20767;-69
2021/11/20 07:32:26;;;;;;;0.40;0.20;;;4.00;99.90;;;;;;4987413;28;20459;-69
2021/11/20 07:34:52;;;;;;;4.90;2.20;;;4.00;99.90;;;;;;4988436;28;20743;-69
2021/11/20 07:37:18;;;;;;;0.40;0.20;;;3.90;99.90;;;;;;4987295;28;20391;-70
2021/11/20 07:39:44;;;;;;;0.40;0.20;;;4.00;99.90;;;;;;4988440;28;20382;-68
2021/11/20 07:42:10;;;;;;;0.40;0.20;;;4.20;99.90;;;;;;4988567;28;20489;-69
2021/11/20 07:44:36;;;;;;;0.40;0.20;;;4.10;99.90;;;;;;4988770;28;20406;-68
2021/11/20 07:47:01;;;;;;;0.40;0.20;;;4.10;99.90;;;;;;4988518;28;20383;-68
2021/11/20 07:49:27;;;;;;;0.40;0.30;;;4.10;99.90;;;;;;4997084;28;20546;-68
2021/11/20 07:51:53;;;;;;;0.40;0.40;;;4.10;99.90;;;;;;4998495;28;20457;-68
2021/11/20 07:54:20;;;;;;;0.60;0.60;;;4.10;99.90;;;;;;4991065;28;20891;-69
2021/11/20 07:56:46;;;;;;;0.40;0.30;;;4.00;99.90;;;;;;5002012;28;20546;-69
2021/11/20 07:59:15;;;;;;;0.57;0.45;;;4.00;99.90;;;;;;4991422;28;20390;-69
2021/11/20 08:01:42;;;;;;;0.40;0.20;;;4.10;99.90;;;;;;4991302;28;20845;-69
2021/11/20 08:04:08;;;;;;;0.40;0.20;;;4.20;99.90;;;;;;4994260;28;20387;-68
2021/11/20 08:06:35;;;;;;;0.50;0.50;;;4.20;99.90;;;;;;5006742;28;21008;-68
2021/11/20 08:09:04;;;;;;;1.00;1.00;;;4.20;99.90;;;;;;5011560;28;20878;-68
2021/11/20 08:11:32;;;;;;;0.40;0.20;;;4.20;99.90;;;;;;5009724;28;20425;-68
2021/11/20 08:13:58;;;;;;;0.40;0.20;;;4.00;99.90;;;;;;5011205;28;20384;-67
2021/11/20 08:16:25;;;;;;;0.40;0.30;;;4.10;99.90;;;;;;5004522;28;20452;-68
2021/11/20 08:18:50;;;;;;;0.40;0.20;;;4.10;99.90;;;;;;4999173;28;20393;-68
2021/11/20 08:21:16;;;;;;;0.40;0.20;;;4.10;99.90;;;;;;5002585;28;20393;-68
2021/11/20 08:23:42;;;;;;;0.40;0.20;;;4.10;99.90;;;;;;4999524;28;20497;-68
2021/11/20 08:26:09;;;;;;;0.40;0.20;;;4.20;99.90;;;;;;4997321;28;20477;-68
2021/11/20 08:28:36;;;;;;;0.40;0.20;;;4.00;99.90;;;;;;5009353;28;20901;-66
2021/11/20 08:31:05;;;;;;;1.80;0.80;;;4.10;99.90;;;;;;4996840;28;20485;-68
2021/11/20 08:33:31;;;;;;;0.40;0.20;;;4.30;99.90;;;;;;4976195;28;20406;-68
2021/11/20 08:35:58;;;;;;;0.40;0.20;;;4.40;99.90;;;;;;5000602;28;20379;-68
2021/11/20 08:38:24;;;;;;;0.40;0.20;;;4.40;99.90;;;;;;5004467;28;20385;-68
2021/11/20 08:40:52;;;;;;;0.40;0.20;;;4.30;99.90;;;;;;5000951;28;20392;-69
2021/11/20 08:43:20;;;;;;;0.40;0.20;;;4.00;99.90;;;;;;5001027;28;20410;-68
2021/11/20 08:45:52;;;;;;;0.40;0.20;;;4.20;99.90;;;;;;4995103;28;20394;-69
2021/11/20 08:48:20;;;;;;;0.40;0.20;;;4.10;99.90;;;;;;5000541;28;20379;-69
2021/11/20 08:50:51;;;;;;;1.10;1.00;;;4.20;99.90;;;;;;4986063;28;20493;-68
2021/11/20 08:53:18;;;;;;;0.40;0.20;;;4.10;99.90;;;;;;4981851;28;20420;-69
2021/11/20 08:55:48;;;;;;;0.40;0.30;;;4.10;99.90;;;;;;4990353;28;20823;-68
2021/11/20 08:58:14;;;;;;;0.40;0.30;;;4.10;99.90;;;;;;4982819;28;20408;-69
2021/11/20 09:00:51;;;;;;;0.40;0.40;;;4.10;99.90;;;;;;4983432;28;20400;-69
2021/11/20 09:03:33;;;;;;;0.40;0.20;;;4.10;99.90;;;;;;4980130;28;20502;-68
2021/11/20 09:06:13;;;;;;;0.90;0.60;;;4.10;99.90;;;;;;4980521;28;20483;-69
2021/11/20 09:08:47;;;;;;;0.40;0.20;;;4.30;99.90;;;;;;4984013;28;21283;-69
2021/11/20 09:11:22;;;;;;;0.40;0.20;;;4.40;99.90;;;;;;4984917;28;20388;-71
2021/11/20 09:13:56;;;;;;;0.40;0.20;;;4.50;99.90;;;;;;4982120;28;20887;-69
2021/11/20 09:16:25;;;;;;;0.40;0.20;;;4.70;99.90;;;;;;4992806;28;20580;-69
2021/11/20 09:18:52;;;;;;;0.40;0.20;;;4.70;99.90;;;;;;4982171;28;20751;-69
2021/11/20 09:21:18;;;;;;;0.40;0.30;;;4.70;99.90;;;;;;4968195;28;20452;-69
2021/11/20 09:23:46;;;;;;;0.40;0.30;;;4.80;99.90;;;;;;4973849;28;20495;-69
2021/11/20 09:26:14;;;;;;;0.40;0.40;;;4.80;99.90;;;;;;4970385;28;20396;-68
2021/11/20 09:28:40;;;;;;;0.40;0.20;;;4.80;99.90;;;;;;4967221;28;20396;-68
2021/11/20 09:31:09;;;;;;;0.40;0.20;;;4.90;99.90;;;;;;4969500;28;20388;-68
2021/11/20 09:33:36;;;;;;;0.40;0.30;;;4.90;99.90;;;;;;4965425;28;20415;-68
2021/11/20 09:36:05;;;;;;;0.40;0.20;;;4.80;99.90;;;;;;4968046;28;20404;-69
2021/11/20 09:38:31;;;;;;;0.40;0.20;;;5.00;99.90;;;;;;4970216;28;20392;-68
2021/11/20 09:41:07;;;;;;;0.60;0.60;;;5.00;99.90;;;;;;4962162;28;20753;-68
2021/11/20 09:43:44;;;;;;;0.40;0.20;;;4.90;99.90;;;;;;4966135;28;20422;-68
2021/11/20 09:46:37;;;;;;;0.40;0.20;;;5.10;99.90;;;;;;4980125;28;20471;-68
2021/11/20 09:49:34;;;;;;;0.40;0.20;;;5.00;99.90;;;;;;4974918;28;20430;-69
2021/11/20 09:52:00;;;;;;;0.40;0.20;;;5.00;99.90;;;;;;4962850;28;20434;-69
2021/11/20 09:54:32;;;;;;;0.40;0.20;;;5.00;99.90;;;;;;4965461;28;20524;-69
2021/11/20 09:57:14;;;;;;;0.50;0.40;;;4.80;99.90;;;;;;4969426;28;20817;-68
2021/11/20 09:59:53;;;;;;;0.40;0.20;;;4.90;99.90;;;;;;4968756;28;20386;-68
2021/11/20 10:02:41;;;;;;;0.40;0.30;;;5.10;99.90;;;;;;4969315;28;20506;-68
2021/11/20 10:05:07;;;;;;;1.00;0.90;;;5.20;99.90;;;;;;4966017;28;20461;-68
2021/11/20 10:07:40;;;;;;;0.40;0.40;;;5.10;99.90;;;;;;4968778;28;20396;-69
2021/11/20 10:10:21;;;;;;;0.40;0.20;;;5.20;99.90;;;;;;4969608;28;20420;-68
2021/11/20 10:13:22;;;;;;;0.40;0.20;;;5.20;99.90;;;;;;4967420;28;20426;-68
2021/11/20 10:15:54;;;;;;;0.40;0.20;;;5.00;99.90;;;;;;4968445;28;20444;-69
2021/11/20 10:18:22;;;;;;;0.40;0.20;;;5.20;99.90;;;;;;4967114;28;20392;-68
2021/11/20 10:20:57;;;;;;;0.40;0.20;;;5.30;99.90;;;;;;4967391;28;20449;-69
2021/11/20 10:23:44;;;;;;;0.40;0.20;;;5.30;99.90;;;;;;4966730;28;20434;-68
2021/11/20 10:26:34;;;;;;;0.40;0.20;;;4.90;99.90;;;;;;4968955;28;20429;-69
2021/11/20 10:29:35;;;;;;;0.40;0.20;;;5.20;99.90;;;;;;4965873;28;20514;-69
2021/11/20 10:32:18;;;;;;;0.40;0.20;;;4.70;99.90;;;;;;4942964;28;20886;-68
2021/11/20 10:34:57;;;;;;;0.40;0.20;;;4.70;99.90;;;;;;4966250;28;20406;-69
2021/11/20 10:37:40;;;;;;;1.00;0.50;;;4.90;99.90;;;;;;4947896;28;20431;-69
2021/11/20 10:40:38;;;;;;;0.40;0.23;;;4.90;99.90;;;;;;4966337;28;20564;-69
2021/11/20 10:43:16;;;;;;;0.40;0.20;;;4.90;99.90;;;;;;4964135;28;20463;-68
2021/11/20 10:46:26;;;;;;;2.70;0.90;;;4.70;99.90;;;;;;4969037;28;20409;-68
2021/11/20 10:49:13;;;;;;;0.40;0.20;;;4.50;99.90;;;;;;4841359;29;20421;-69
2021/11/20 10:51:44;;;;;;;0.40;0.20;;;4.90;99.90;;;;;;4958921;28;20420;-69
2021/11/20 10:54:43;;;;;;;0.40;0.20;;;5.10;99.90;;;;;;4963924;28;20421;-69
2021/11/20 10:57:14;;;;;;;0.60;0.60;;;5.30;99.90;;;;;;4966260;28;20479;-67
2021/11/20 11:00:06;;;;;;;0.40;0.20;;;5.30;99.90;;;;;;4967726;28;20405;-68
2021/11/20 11:02:34;;;;;;;0.40;0.30;;;5.10;99.90;;;;;;4928018;28;20490;-68
2021/11/20 11:05:30;;;;;;;0.40;0.25;;;5.20;99.90;;;;;;4964715;28;20412;-68
2021/11/20 11:08:31;;;;;;;0.40;0.30;;;4.90;99.90;;;;;;4967031;28;20392;-68
2021/11/20 11:11:24;;;;;;;0.40;0.30;;;5.00;99.90;;;;;;4966330;28;20431;-68
2021/11/20 11:14:02;;;;;;;0.40;0.20;;;5.00;99.90;;;;;;4929546;28;20398;-67
2021/11/20 11:16:39;;;;;;;0.40;0.30;;;4.90;99.90;;;;;;4965711;28;20543;-67
2021/11/20 11:19:23;;;;;;;0.40;0.20;;;5.00;99.90;;;;;;4964724;28;20394;-68
2021/11/20 11:22:07;;;;;;;0.60;0.60;;;5.20;99.90;;;;;;4963487;28;20406;-69
2021/11/20 11:24:42;;;;;;;0.40;0.20;;;5.30;99.90;;;;;;4963259;28;20416;-69
2021/11/20 11:27:16;;;;;;;1.00;0.90;;;5.40;99.90;;;;;;4968771;28;20545;-69
2021/11/20 11:29:59;;;;;;;0.40;0.40;;;5.40;99.90;;;;;;4967880;28;20400;-69
2021/11/20 11:32:31;;;;;;;0.40;0.20;;;5.40;99.90;;;;;;4967287;28;20418;-69
2021/11/20 11:35:22;;;;;;;0.40;0.20;;;5.60;99.90;;;;;;4980356;28;20988;-68
2021/11/20 11:38:09;;;;;;;0.50;0.50;;;5.20;99.90;;;;;;4963773;28;20499;-68
2021/11/20 11:40:44;;;;;;;0.40;0.20;;;5.30;99.90;;;;;;4964177;28;20409;-68
2021/11/20 11:43:17;;;;;;;0.40;0.20;;;5.60;99.90;;;;;;4978645;28;20854;-69
2021/11/20 11:46:07;;;;;;;0.40;0.20;;;5.70;99.90;;;;;;4981284;28;20471;-69
2021/11/20 11:48:35;;;;;;;0.40;0.20;;;5.70;99.90;;;;;;4963309;28;20394;-69
2021/11/20 11:51:38;;;;;;;0.40;0.20;;;5.50;99.90;;;;;;4983500;28;20424;-69
2021/11/20 11:54:12;;;;;;;0.40;0.40;;;5.60;99.90;;;;;;4980646;28;20473;-69
2021/11/20 11:56:58;;;;;;;0.40;0.27;;;5.70;99.90;;;;;;4971500;28;20417;-68
2021/11/20 11:59:36;;;;;;;0.40;0.20;;;5.70;99.90;;;;;;4972507;28;20423;-68
2021/11/20 12:02:24;;;;;;;0.40;0.20;;;5.70;99.90;;;;;;4972470;28;20412;-68
2021/11/20 12:05:28;;;;;;;0.40;0.20;;;5.80;99.90;;;;;;4977772;28;20945;-68
2021/11/20 12:07:58;;;;;;;0.40;0.20;;;5.80;99.90;;;;;;4966274;28;20412;-68
2021/11/20 12:10:24;;;;;;;0.40;0.20;;;5.60;99.90;;;;;;4974514;28;20392;-67
2021/11/20 12:13:10;;;;;;;0.40;0.20;;;5.80;99.90;;;;;;4971110;28;20407;-68
2021/11/20 12:15:42;;;;;;;0.40;0.30;;;5.80;99.90;;;;;;4973807;28;20404;-68
2021/11/20 12:18:24;;;;;;;0.40;0.20;;;5.80;99.90;;;;;;4990194;28;20957;-68
2021/11/20 12:21:02;;;;;;;0.40;0.20;;;5.60;99.90;;;;;;4963841;28;20745;-68
2021/11/20 12:23:47;;;;;;;0.40;0.35;;;5.60;99.90;;;;;;4984616;28;20417;-68
2021/11/20 12:26:33;;;;;;;0.40;0.20;;;5.70;99.90;;;;;;4964130;28;20903;-68
2021/11/20 12:29:08;;;;;;;0.40;0.20;;;5.60;99.90;;;;;;4954254;29;20802;-68
2021/11/20 12:32:01;;;;;;;0.40;0.20;;;5.60;99.90;;;;;;4955249;29;20396;-69
2021/11/20 12:34:36;;;;;;;0.40;0.30;;;5.60;99.90;;;;;;4961113;28;20391;-69
2021/11/20 12:37:41;;;;;;;0.40;0.22;;;5.50;99.90;;;;;;4975370;28;20403;-69
2021/11/20 12:40:36;;;;;;;0.40;0.20;;;5.50;99.90;;;;;;4981397;28;20391;-69
2021/11/20 12:43:30;;;;;;;0.40;0.20;;;5.70;99.90;;;;;;4971905;28;20428;-68
2021/11/20 12:46:26;;;;;;;0.40;0.20;;;5.80;99.90;;;;;;4954648;29;20394;-69
2021/11/20 12:49:13;;;;;;;0.40;0.40;;;5.50;99.90;;;;;;4985495;28;20498;-69
2021/11/20 12:52:00;;;;;;;0.70;0.70;;;5.50;99.90;;;;;;4972628;28;20416;-69
2021/11/20 12:54:50;;;;;;;0.60;0.60;;;5.70;99.90;;;;;;4970710;28;20392;-69
2021/11/20 12:57:44;;;;;;;0.60;0.60;;;5.80;99.90;;;;;;4969007;28;20382;-69
2021/11/20 13:00:24;;;;;;;0.50;0.50;;;5.80;99.90;;;;;;4988149;28;20426;-69
2021/11/20 13:02:56;;;;;;;1.00;1.00;;;6.00;99.90;;;;;;4980320;28;20437;-69
2021/11/20 13:05:28;;;;;;;0.70;0.70;;;5.70;99.90;;;;;;4963657;28;20452;-69
2021/11/20 13:08:04;;;;;;;0.40;0.33;;;5.80;99.90;;;;;;4965287;28;20411;-69
2021/11/20 13:10:36;;;;;;;0.60;0.40;;;6.00;99.90;;;;;;4976854;28;20412;-69
2021/11/20 13:13:33;;;;;;;0.50;0.20;;;6.10;99.90;;;;;;4981049;28;20399;-69
2021/11/20 13:16:05;;;;;;;0.40;0.20;;;5.90;99.90;;;;;;4983049;28;20400;-69
2021/11/20 13:18:44;;;;;;;0.50;0.40;;;5.90;99.90;;;;;;4979159;28;20499;-69
2021/11/20 13:21:24;;;;;;;0.70;0.70;;;5.70;99.90;;;;;;4978277;28;20400;-69
2021/11/20 13:24:08;;;;;;;0.40;0.25;;;5.70;99.90;;;;;;4977321;28;20406;-69
2021/11/20 13:26:34;;;;;;;0.40;0.40;;;6.00;99.90;;;;;;4981998;28;20398;-69
2021/11/20 13:29:01;;;;;;;0.40;0.30;;;5.90;99.90;;;;;;4982307;28;20397;-69